createdAt,value
2023-01-10T00:02:01.407Z,96527.71
2023-01-10T00:04:30.877Z,96527.36
2023-01-10T00:06:59.291Z,96529.06
2023-01-10T00:09:28.075Z,96520.75
2023-01-10T00:12:14.558Z,96522.33
2023-01-10T00:14:42.725Z,96523.02
2023-01-10T00:17:10.952Z,96520.54
2023-01-10T00:19:39.112Z,96519.86
2023-01-10T00:22:08.343Z,96522.08
2023-01-10T00:24:36.345Z,96514.76
2023-01-10T00:27:04.813Z,96512.41
2023-01-10T00:29:34.308Z,96510.59
2023-01-10T00:32:02.418Z,96518.04
2023-01-10T00:34:31.385Z,96520.06
2023-01-10T00:36:59.470Z,96520.80
2023-01-10T00:39:27.937Z,96520.10
2023-01-10T00:42:14.750Z,96520.98
2023-01-10T00:44:42.978Z,96523.97
2023-01-10T00:47:11.077Z,96525.77
2023-01-10T00:49:39.931Z,96518.37
2023-01-10T00:52:08.071Z,96519.67
2023-01-10T00:54:36.198Z,96515.50
2023-01-10T00:57:04.433Z,96509.79
2023-01-10T00:59:32.464Z,96507.55
2023-01-10T01:02:00.688Z,96509.27
2023-01-10T01:04:28.815Z,96513.12
2023-01-10T01:06:58.819Z,96507.81
2023-01-10T01:09:29.313Z,96508.86
2023-01-10T01:11:57.491Z,96506.61
2023-01-10T01:14:25.899Z,96500.73
2023-01-10T01:16:53.872Z,96502.81
2023-01-10T01:19:22.083Z,96493.98
2023-01-10T01:21:50.359Z,96491.40
2023-01-10T01:24:18.358Z,96491.83
2023-01-10T01:26:46.357Z,96488.75
2023-01-10T01:29:14.751Z,96482.42
2023-01-10T01:31:43.073Z,96484.79
2023-01-10T01:34:11.289Z,96482.73
2023-01-10T01:36:39.472Z,96479.96
2023-01-10T01:39:07.779Z,96473.27
2023-01-10T01:41:54.408Z,96483.38
2023-01-10T01:44:22.508Z,96479.14
2023-01-10T01:47:05.244Z,96475.76
2023-01-10T01:49:38.928Z,96479.52
2023-01-10T01:52:18.383Z,96474.92
2023-01-10T01:54:46.696Z,96469.10
2023-01-10T01:57:20.563Z,96457.02
2023-01-10T01:59:51.333Z,96455.98
2023-01-10T02:02:29.937Z,96459.30
2023-01-10T02:05:12.944Z,96456.10
2023-01-10T02:07:44.440Z,96455.87
2023-01-10T02:10:30.947Z,96465.87
2023-01-10T02:13:03.316Z,96468.94
2023-01-10T02:15:31.788Z,96471.10
2023-01-10T02:18:02.371Z,96468.21
2023-01-10T02:20:48.161Z,96462.83
2023-01-10T02:23:35.396Z,96463.52
2023-01-10T02:26:47.766Z,96469.09
2023-01-10T02:29:57.051Z,96464.35
2023-01-10T02:32:47.729Z,96461.18
2023-01-10T02:35:27.657Z,96454.02
2023-01-10T02:38:05.530Z,96451.06
2023-01-10T02:40:58.248Z,96454.86
2023-01-10T02:43:31.755Z,96453.11
2023-01-10T02:46:10.445Z,96452.06
2023-01-10T02:48:38.479Z,96460.73
2023-01-10T02:51:27.635Z,96462.67
2023-01-10T02:54:19.693Z,96460.80
2023-01-10T02:57:29.426Z,96464.59
2023-01-10T03:00:26.158Z,96463.38
2023-01-10T03:03:02.923Z,96465.08
2023-01-10T03:05:37.809Z,96459.61
2023-01-10T03:08:20.099Z,96465.27
2023-01-10T03:10:50.501Z,96468.84
2023-01-10T03:13:48.590Z,96470.16
2023-01-10T03:16:19.696Z,96469.43
2023-01-10T03:19:12.871Z,96465.82
2023-01-10T03:21:43.713Z,96462.55
2023-01-10T03:24:19.367Z,96466.42
2023-01-10T03:26:53.685Z,96465.97
2023-01-10T03:29:28.762Z,96460.40
2023-01-10T03:32:04.345Z,96457.73
2023-01-10T03:34:34.070Z,96457.94
2023-01-10T03:37:14.707Z,96465.53
2023-01-10T03:39:54.581Z,96466.85
2023-01-10T03:43:00.644Z,96467.61
2023-01-10T03:45:40.167Z,96465.09
2023-01-10T03:48:11.533Z,96468.30
2023-01-10T03:50:42.570Z,96476.43
2023-01-10T03:53:13.211Z,96475.24
2023-01-10T03:55:43.223Z,96472.88
2023-01-10T03:58:11.574Z,96470.32
2023-01-10T04:00:40.765Z,96468.44
2023-01-10T04:03:09.969Z,96476.45
2023-01-10T04:05:38.182Z,96475.23
2023-01-10T04:08:06.301Z,96481.11
2023-01-10T04:10:34.612Z,96475.69
2023-01-10T04:13:02.861Z,96475.65
2023-01-10T04:15:32.194Z,96479.94
2023-01-10T04:18:00.432Z,96477.41
2023-01-10T04:20:28.515Z,96473.48
2023-01-10T04:22:56.468Z,96476.15
2023-01-10T04:25:25.063Z,96485.23
2023-01-10T04:27:53.249Z,96492.05
2023-01-10T04:30:21.256Z,96496.64
2023-01-10T04:32:49.336Z,96496.11
2023-01-10T04:35:17.402Z,96498.85
2023-01-10T04:37:45.442Z,96496.54
2023-01-10T04:40:17.345Z,96499.27
2023-01-10T04:42:45.417Z,96498.31
2023-01-10T04:45:17.799Z,96494.95
2023-01-10T04:47:51.168Z,96495.24
2023-01-10T04:50:19.263Z,96505.61
2023-01-10T04:52:47.310Z,96514.98
2023-01-10T04:55:15.685Z,96514.15
2023-01-10T04:57:43.861Z,96513.85
2023-01-10T05:00:12.867Z,96513.54
2023-01-10T05:02:44.442Z,96515.84
2023-01-10T05:05:14.477Z,96517.75
2023-01-10T05:07:45.983Z,96514.30
2023-01-10T05:10:14.471Z,96510.64
2023-01-10T05:12:42.662Z,96515.02
2023-01-10T05:15:11.192Z,96517.86
2023-01-10T05:17:39.664Z,96520.94
2023-01-10T05:20:08.273Z,96522.63
2023-01-10T05:22:36.435Z,96520.02
2023-01-10T05:25:05.846Z,96531.04
2023-01-10T05:27:34.031Z,96533.57
2023-01-10T05:30:02.150Z,96535.06
2023-01-10T05:32:30.272Z,96538.58
2023-01-10T05:34:58.465Z,96547.62
2023-01-10T05:37:26.676Z,96550.56
2023-01-10T05:39:54.661Z,96553.16
2023-01-10T05:42:23.009Z,96559.36
2023-01-10T05:44:51.064Z,96560.86
2023-01-10T05:47:19.810Z,96565.31
2023-01-10T05:49:48.056Z,96566.81
2023-01-10T05:52:17.028Z,96567.77
2023-01-10T05:54:45.799Z,96571.02
2023-01-10T05:57:13.966Z,96565.80
2023-01-10T05:59:42.246Z,96562.02
2023-01-10T06:02:10.679Z,96560.14
2023-01-10T06:04:39.113Z,96561.74
2023-01-10T06:07:07.336Z,96567.71
2023-01-10T06:09:35.672Z,96571.73
2023-01-10T06:12:04.048Z,96576.09
2023-01-10T06:14:32.749Z,96582.01
2023-01-10T06:17:01.237Z,96588.24
2023-01-10T06:19:29.448Z,96592.02
2023-01-10T06:21:57.531Z,96594.91
2023-01-10T06:24:26.012Z,96599.34
2023-01-10T06:26:54.419Z,96605.46
2023-01-10T06:29:23.623Z,96598.09
2023-01-10T06:31:51.965Z,96592.83
2023-01-10T06:34:20.140Z,96597.61
2023-01-10T06:36:48.813Z,96600.20
2023-01-10T06:39:17.146Z,96600.69
2023-01-10T06:41:45.354Z,96602.59
2023-01-10T06:44:14.116Z,96601.56
2023-01-10T06:46:42.526Z,96599.95
2023-01-10T06:49:11.212Z,96599.38
2023-01-10T06:51:39.351Z,96603.02
2023-01-10T06:54:07.522Z,96600.13
2023-01-10T06:56:35.913Z,96599.63
2023-01-10T06:59:04.087Z,96602.06
2023-01-10T07:01:32.426Z,96610.56
2023-01-10T07:04:01.508Z,96616.31
2023-01-10T07:06:30.149Z,96623.08
2023-01-10T07:08:58.703Z,96627.93
2023-01-10T07:11:26.792Z,96627.77
2023-01-10T07:13:55.044Z,96627.64
2023-01-10T07:16:23.553Z,96628.50
2023-01-10T07:18:52.786Z,96628.17
2023-01-10T07:21:21.240Z,96630.23
2023-01-10T07:23:51.085Z,96635.69
2023-01-10T07:26:20.759Z,96630.71
2023-01-10T07:28:51.433Z,96620.94
2023-01-10T07:31:23.198Z,96613.48
2023-01-10T07:33:52.498Z,96614.19
2023-01-10T07:36:21.174Z,96613.14
2023-01-10T07:38:49.673Z,96613.31
2023-01-10T07:41:18.396Z,96609.32
2023-01-10T07:43:49.038Z,96602.94
2023-01-10T07:46:17.624Z,96605.55
2023-01-10T07:48:47.229Z,96609.14
2023-01-10T07:51:16.130Z,96607.14
2023-01-10T07:53:44.543Z,96605.45
2023-01-10T07:56:13.196Z,96607.29
2023-01-10T07:58:41.972Z,96612.35
2023-01-10T08:01:10.846Z,96606.66
2023-01-10T08:03:39.107Z,96598.08
2023-01-10T08:06:14.825Z,96593.86
2023-01-10T08:08:44.952Z,96596.95
2023-01-10T08:11:13.380Z,96602.10
2023-01-10T08:13:41.751Z,96611.56
2023-01-10T08:16:10.242Z,96615.45
2023-01-10T08:18:42.564Z,96621.94
2023-01-10T08:21:11.168Z,96627.84
2023-01-10T08:23:40.208Z,96640.64
2023-01-10T08:26:09.291Z,96654.63
2023-01-10T08:28:37.774Z,96660.15
2023-01-10T08:31:11.577Z,96660.49
2023-01-10T08:33:41.788Z,96663.08
2023-01-10T08:36:22.441Z,96666.20
2023-01-10T08:38:51.350Z,96668.52
2023-01-10T08:41:20.017Z,96676.11
2023-01-10T08:43:52.681Z,96684.87
2023-01-10T08:46:21.285Z,96692.95
2023-01-10T08:48:50.595Z,96697.46
2023-01-10T08:51:19.633Z,96709.98
2023-01-10T08:53:48.091Z,96725.08
2023-01-10T08:56:16.616Z,96731.66
2023-01-10T08:58:45.135Z,96731.88
2023-01-10T09:01:14.670Z,96730.81
2023-01-10T09:03:43.661Z,96734.83
2023-01-10T09:06:12.299Z,96738.92
2023-01-10T09:08:40.594Z,96739.99
2023-01-10T09:11:08.962Z,96740.70
2023-01-10T09:13:37.907Z,96742.77
2023-01-10T09:16:07.803Z,96740.50
2023-01-10T09:18:36.872Z,96743.13
2023-01-10T09:21:06.005Z,96745.92
2023-01-10T09:23:36.926Z,96742.84
2023-01-10T09:26:05.798Z,96747.11
2023-01-10T09:28:34.693Z,96751.04
2023-01-10T09:31:04.699Z,96750.79
2023-01-10T09:33:45.774Z,96745.88
2023-01-10T09:36:15.936Z,96744.26
2023-01-10T09:38:45.277Z,96744.52
2023-01-10T09:41:49.570Z,96746.83
2023-01-10T09:44:25.822Z,96746.66
2023-01-10T09:47:21.735Z,96745.27
2023-01-10T09:49:58.282Z,96740.73
2023-01-10T09:52:33.312Z,96744.27
2023-01-10T09:55:27.266Z,96749.00
2023-01-10T09:57:59.313Z,96754.35
2023-01-10T10:00:54.444Z,96758.48
2023-01-10T10:03:43.647Z,96766.65
2023-01-10T10:06:14.233Z,96767.61
2023-01-10T10:08:45.728Z,96755.95
2023-01-10T10:11:26.848Z,96769.08
2023-01-10T10:14:23.381Z,96772.61
2023-01-10T10:17:03.916Z,96764.45
2023-01-10T10:20:13.862Z,96759.20
2023-01-10T10:23:21.223Z,96766.44
2023-01-10T10:25:55.918Z,96770.36
2023-01-10T10:28:53.599Z,96774.09
2023-01-10T10:31:51.231Z,96771.70
2023-01-10T10:34:25.855Z,96766.73
2023-01-10T10:36:57.791Z,96767.96
2023-01-10T10:39:49.722Z,96768.31
2023-01-10T10:42:20.247Z,96772.80
2023-01-10T10:45:05.216Z,96773.95
2023-01-10T10:47:36.453Z,96770.99
2023-01-10T10:51:02.248Z,96776.75
2023-01-10T10:53:33.768Z,96778.37
2023-01-10T10:56:11.820Z,96776.00
2023-01-10T10:58:46.781Z,96776.87
2023-01-10T11:01:16.588Z,96773.42
2023-01-10T11:03:50.262Z,96768.27
2023-01-10T11:06:20.460Z,96763.13
2023-01-10T11:08:52.914Z,96761.05
2023-01-10T11:11:35.986Z,96759.16
2023-01-10T11:14:08.716Z,96759.20
2023-01-10T11:16:45.241Z,96763.34
2023-01-10T11:19:23.551Z,96765.33
2023-01-10T11:21:54.289Z,96774.22
2023-01-10T11:24:38.516Z,96779.61
2023-01-10T11:27:19.653Z,96779.98
2023-01-10T11:29:59.276Z,96783.30
2023-01-10T11:32:54.313Z,96786.53
2023-01-10T11:35:35.693Z,96787.27
2023-01-10T11:38:07.622Z,96786.18
2023-01-10T11:40:39.385Z,96787.63
2023-01-10T11:43:26.609Z,96788.02
2023-01-10T11:46:03.098Z,96786.02
2023-01-10T11:49:05.655Z,96785.19
2023-01-10T11:52:00.472Z,96786.76
2023-01-10T11:54:30.574Z,96787.11
2023-01-10T11:57:15.937Z,96787.98
2023-01-10T11:59:58.519Z,96786.09
2023-01-10T12:02:29.879Z,96789.11
2023-01-10T12:05:02.288Z,96791.92
2023-01-10T12:07:31.343Z,96788.59
2023-01-10T12:10:03.310Z,96789.51
2023-01-10T12:12:34.973Z,96785.33
2023-01-10T12:15:29.502Z,96786.17
2023-01-10T12:18:03.716Z,96792.04
2023-01-10T12:20:58.139Z,96792.35
2023-01-10T12:23:29.591Z,96791.00
2023-01-10T12:26:11.405Z,96797.19
2023-01-10T12:29:08.790Z,96799.04
2023-01-10T12:31:40.945Z,96798.84
2023-01-10T12:34:23.370Z,96803.02
2023-01-10T12:37:10.746Z,96800.02
2023-01-10T12:39:49.591Z,96793.52
2023-01-10T12:42:51.773Z,96784.38
2023-01-10T12:45:29.671Z,96794.63
2023-01-10T12:48:21.952Z,96798.34
2023-01-10T12:51:07.469Z,96797.82
2023-01-10T12:53:41.543Z,96799.66
2023-01-10T12:56:15.230Z,96810.95
2023-01-10T12:58:48.700Z,96816.50
2023-01-10T13:01:25.269Z,96821.71
2023-01-10T13:04:01.039Z,96827.60
2023-01-10T13:06:35.636Z,96832.16
2023-01-10T13:09:09.936Z,96832.18
2023-01-10T13:12:17.759Z,96831.64
2023-01-10T13:14:49.361Z,96833.23
2023-01-10T13:17:47.186Z,96835.39
2023-01-10T13:20:21.693Z,96838.73
2023-01-10T13:22:56.639Z,96840.49
2023-01-10T13:25:31.487Z,96840.91
2023-01-10T13:28:07.984Z,96844.30
2023-01-10T13:30:41.037Z,96844.15
2023-01-10T13:33:23.637Z,96848.43
2023-01-10T13:35:54.780Z,96853.08
2023-01-10T13:38:56.476Z,96855.47
2023-01-10T13:42:03.899Z,96852.07
2023-01-10T13:45:00.947Z,96852.02
2023-01-10T13:47:44.876Z,96848.98
2023-01-10T13:50:38.640Z,96856.39
2023-01-10T13:53:12.607Z,96857.42
2023-01-10T13:55:46.438Z,96862.16
2023-01-10T13:58:15.858Z,96865.39
2023-01-10T14:01:12.674Z,96866.09
2023-01-10T14:03:50.195Z,96869.91
2023-01-10T14:06:33.001Z,96866.61
2023-01-10T14:09:27.623Z,96859.52
2023-01-10T14:12:00.560Z,96856.54
2023-01-10T14:14:41.029Z,96856.73
2023-01-10T14:17:24.602Z,96858.59
2023-01-10T14:20:05.127Z,96863.45
2023-01-10T14:22:37.619Z,96868.56
2023-01-10T14:25:28.056Z,96877.16
2023-01-10T14:27:57.477Z,96884.71
2023-01-10T14:30:33.088Z,96884.41
2023-01-10T14:33:16.210Z,96887.23
2023-01-10T14:35:48.014Z,96883.10
2023-01-10T14:38:38.323Z,96885.78
2023-01-10T14:41:25.211Z,96888.02
2023-01-10T14:44:12.053Z,96887.71
2023-01-10T14:46:47.742Z,96887.08
2023-01-10T14:49:35.769Z,96882.59
2023-01-10T14:52:21.506Z,96884.70
2023-01-10T14:55:10.278Z,96877.55
2023-01-10T14:57:39.884Z,96871.45
2023-01-10T15:00:18.004Z,96869.79
2023-01-10T15:02:49.173Z,96866.75
2023-01-10T15:05:24.172Z,96866.99
2023-01-10T15:07:55.424Z,96866.92
2023-01-10T15:10:41.750Z,96874.10
2023-01-10T15:13:15.502Z,96879.33
2023-01-10T15:15:48.881Z,96887.72
2023-01-10T15:18:36.836Z,96892.64
2023-01-10T15:21:06.334Z,96897.69
2023-01-10T15:23:41.230Z,96897.48
2023-01-10T15:26:27.737Z,96902.88
2023-01-10T15:29:14.878Z,96908.98
2023-01-10T15:31:46.737Z,96911.75
2023-01-10T15:34:26.891Z,96909.38
2023-01-10T15:36:57.587Z,96908.21
2023-01-10T15:39:31.155Z,96906.86
2023-01-10T15:42:03.941Z,96908.27
2023-01-10T15:44:40.186Z,96910.05
2023-01-10T15:47:48.197Z,96911.15
2023-01-10T15:50:39.420Z,96907.64
2023-01-10T15:53:12.027Z,96912.66
2023-01-10T15:56:01.004Z,96920.80
2023-01-10T15:58:35.949Z,96925.66
2023-01-10T16:01:05.122Z,96928.27
2023-01-10T16:03:51.309Z,96933.98
2023-01-10T16:06:22.196Z,96937.61
2023-01-10T16:08:56.040Z,96938.46
2023-01-10T16:11:55.498Z,96943.33
2023-01-10T16:14:24.000Z,96954.97
2023-01-10T16:16:52.512Z,96959.40
2023-01-10T16:19:21.512Z,96970.95
2023-01-10T16:21:57.942Z,96972.73
2023-01-10T16:24:35.884Z,96975.36
2023-01-10T16:27:06.238Z,96977.32
2023-01-10T16:29:36.292Z,96981.70
2023-01-10T16:32:13.702Z,96977.57
2023-01-10T16:34:42.045Z,96977.22
2023-01-10T16:37:10.653Z,96982.25
2023-01-10T16:39:38.805Z,96979.10
2023-01-10T16:42:25.778Z,96977.85
2023-01-10T16:44:54.012Z,96978.99
2023-01-10T16:47:22.141Z,96969.01
2023-01-10T16:49:50.408Z,96969.05
2023-01-10T16:52:18.552Z,96984.09
2023-01-10T16:54:47.304Z,96988.23
2023-01-10T16:57:17.137Z,96991.73
2023-01-10T16:59:45.264Z,96993.99
2023-01-10T17:02:19.289Z,96994.37
2023-01-10T17:04:48.799Z,96992.84
2023-01-10T17:07:17.110Z,96985.67
2023-01-10T17:09:45.303Z,96995.50
2023-01-10T17:12:19.801Z,96992.58
2023-01-10T17:14:48.379Z,96989.97
2023-01-10T17:17:16.460Z,96982.02
2023-01-10T17:19:44.758Z,96984.11
2023-01-10T17:22:12.982Z,96988.78
2023-01-10T17:24:41.035Z,96997.02
2023-01-10T17:27:08.983Z,96998.04
2023-01-10T17:29:37.046Z,97000.29
2023-01-10T17:32:06.057Z,96999.21
2023-01-10T17:34:38.765Z,96998.12
2023-01-10T17:37:07.042Z,96996.35
2023-01-10T17:39:38.223Z,96996.34
2023-01-10T17:42:07.368Z,96989.06
2023-01-10T17:44:35.573Z,96993.95
2023-01-10T17:47:03.774Z,96992.60
2023-01-10T17:49:31.817Z,96994.06
2023-01-10T17:52:00.038Z,96997.98
2023-01-10T17:54:28.618Z,97001.35
2023-01-10T17:56:56.842Z,97004.69
2023-01-10T17:59:25.501Z,97004.89
2023-01-10T18:01:53.824Z,97002.77
2023-01-10T18:04:22.020Z,97002.43
2023-01-10T18:06:52.502Z,97002.63
2023-01-10T18:09:20.877Z,96996.70
2023-01-10T18:11:49.238Z,96996.55
2023-01-10T18:14:36.080Z,97000.32
2023-01-10T18:17:08.056Z,97000.70
2023-01-10T18:19:36.430Z,97005.24
2023-01-10T18:22:26.408Z,97005.79
2023-01-10T18:24:56.029Z,97001.27
2023-01-10T18:27:27.255Z,96994.67
2023-01-10T18:29:55.326Z,96997.62
2023-01-10T18:32:24.359Z,96996.93
2023-01-10T18:34:52.532Z,97001.09
2023-01-10T18:37:20.872Z,97004.91
2023-01-10T18:39:49.824Z,97007.84
2023-01-10T18:42:18.001Z,97012.34
2023-01-10T18:44:46.189Z,97013.39
2023-01-10T18:47:14.838Z,97019.48
2023-01-10T18:49:43.061Z,97025.16
2023-01-10T18:52:11.195Z,97027.75
2023-01-10T18:54:39.437Z,97030.36
2023-01-10T18:57:07.517Z,97028.99
2023-01-10T18:59:37.897Z,97027.14
2023-01-10T19:02:14.312Z,97032.41
2023-01-10T19:04:42.778Z,97027.67
2023-01-10T19:07:10.877Z,97030.94
2023-01-10T19:09:38.960Z,97036.49
2023-01-10T19:12:07.695Z,97039.39
2023-01-10T19:14:36.043Z,97040.54
2023-01-10T19:17:04.594Z,97040.14
2023-01-10T19:19:32.740Z,97042.23
2023-01-10T19:22:01.068Z,97040.70
2023-01-10T19:24:32.068Z,97043.76
2023-01-10T19:27:00.743Z,97045.66
2023-01-10T19:29:30.783Z,97051.56
2023-01-10T19:31:59.508Z,97054.68
2023-01-10T19:34:27.844Z,97056.98
2023-01-10T19:36:56.666Z,97058.89
2023-01-10T19:39:25.247Z,97066.16
2023-01-10T19:41:53.701Z,97072.75
2023-01-10T19:44:22.174Z,97071.02
2023-01-10T19:46:50.569Z,97072.56
2023-01-10T19:49:19.785Z,97071.67
2023-01-10T19:51:51.420Z,97074.45
2023-01-10T19:54:20.236Z,97078.58
2023-01-10T19:56:48.263Z,97081.51
2023-01-10T19:59:17.874Z,97084.42
2023-01-10T20:01:46.351Z,97085.28
2023-01-10T20:04:15.396Z,97087.90
2023-01-10T20:06:43.956Z,97088.05
2023-01-10T20:09:12.633Z,97088.05
2023-01-10T20:11:43.235Z,97087.13
2023-01-10T20:14:18.434Z,97085.89
2023-01-10T20:16:49.173Z,97083.82
2023-01-10T20:19:18.756Z,97082.30
2023-01-10T20:21:47.201Z,97077.30
2023-01-10T20:24:21.163Z,97073.03
2023-01-10T20:26:50.966Z,97076.52
2023-01-10T20:29:20.729Z,97074.27
2023-01-10T20:31:52.972Z,97071.14
2023-01-10T20:34:23.027Z,97072.35
2023-01-10T20:36:54.148Z,97074.97
2023-01-10T20:39:25.760Z,97077.91
2023-01-10T20:41:53.890Z,97075.13
2023-01-10T20:44:22.546Z,97077.20
2023-01-10T20:46:51.259Z,97076.13
2023-01-10T20:49:19.896Z,97072.33
2023-01-10T20:51:53.848Z,97075.25
2023-01-10T20:54:21.860Z,97081.98
2023-01-10T20:56:50.161Z,97083.32
2023-01-10T20:59:18.655Z,97085.21
2023-01-10T21:01:46.840Z,97092.32
2023-01-10T21:04:14.935Z,97102.76
2023-01-10T21:06:43.072Z,97109.19
2023-01-10T21:09:13.296Z,97116.33
2023-01-10T21:11:56.621Z,97122.40
2023-01-10T21:14:29.367Z,97120.70
2023-01-10T21:16:57.576Z,97115.91
2023-01-10T21:19:25.561Z,97111.01
2023-01-10T21:21:53.608Z,97113.83
2023-01-10T21:24:23.171Z,97116.20
2023-01-10T21:26:51.419Z,97113.19
2023-01-10T21:29:19.468Z,97116.29
2023-01-10T21:31:47.711Z,97122.32
2023-01-10T21:34:16.013Z,97124.57
2023-01-10T21:36:44.233Z,97125.73
2023-01-10T21:39:12.395Z,97120.70
2023-01-10T21:42:15.555Z,97120.65
2023-01-10T21:44:43.651Z,97127.40
2023-01-10T21:47:11.823Z,97131.91
2023-01-10T21:49:40.363Z,97134.16
2023-01-10T21:52:08.598Z,97138.53
2023-01-10T21:54:37.464Z,97138.74
2023-01-10T21:57:05.438Z,97134.38
2023-01-10T21:59:34.258Z,97131.90
2023-01-10T22:02:02.180Z,97133.42
2023-01-10T22:04:30.213Z,97134.27
2023-01-10T22:06:58.419Z,97133.27
2023-01-10T22:09:26.375Z,97129.48
2023-01-10T22:11:54.397Z,97124.61
2023-01-10T22:14:22.487Z,97122.51
2023-01-10T22:16:52.600Z,97119.21
2023-01-10T22:19:20.652Z,97122.92
2023-01-10T22:21:48.934Z,97129.89
2023-01-10T22:24:17.151Z,97139.14
2023-01-10T22:26:45.397Z,97147.67
2023-01-10T22:29:13.323Z,97152.18
2023-01-10T22:31:41.503Z,97157.27
2023-01-10T22:34:09.925Z,97157.94
2023-01-10T22:36:38.048Z,97160.05
2023-01-10T22:39:07.394Z,97156.70
2023-01-10T22:41:36.889Z,97150.75
2023-01-10T22:44:06.094Z,97153.30
2023-01-10T22:46:34.403Z,97157.27
2023-01-10T22:49:02.482Z,97172.72
2023-01-10T22:51:35.463Z,97179.68
2023-01-10T22:54:04.681Z,97179.70
2023-01-10T22:56:33.392Z,97176.41
2023-01-10T22:59:01.510Z,97177.94
2023-01-10T23:01:30.042Z,97181.75
2023-01-10T23:03:58.191Z,97182.57
2023-01-10T23:06:26.739Z,97182.50
2023-01-10T23:08:54.698Z,97182.11
2023-01-10T23:11:23.136Z,97174.60
2023-01-10T23:13:51.218Z,97168.69
2023-01-10T23:16:29.819Z,97176.69
2023-01-10T23:18:59.134Z,97174.98
2023-01-10T23:21:29.341Z,97173.98
2023-01-10T23:23:57.478Z,97168.98
2023-01-10T23:26:25.629Z,97165.90
2023-01-10T23:28:53.724Z,97160.71
2023-01-10T23:31:24.595Z,97165.06
2023-01-10T23:33:52.678Z,97165.80
2023-01-10T23:36:20.982Z,97168.08
2023-01-10T23:38:48.922Z,97170.37
2023-01-10T23:41:17.212Z,97175.95
2023-01-10T23:43:45.431Z,97181.52
2023-01-10T23:46:13.583Z,97187.57
2023-01-10T23:48:43.228Z,97188.95
2023-01-10T23:51:11.747Z,97192.97
2023-01-10T23:53:39.997Z,97197.30
2023-01-10T23:56:13.662Z,97202.34
2023-01-10T23:58:41.726Z,97191.08
